首页
METAR-TAF:

METAR-TAF

机场 :

Strother Field

温菲尔德 / 阿肯色市, 堪薩斯州, 美国

纬度: 37-10-05N, 经度: 097-02-13W, 海拔: 353米

当前天气观测

该预报发布于54分钟前的23:54 UTC
风速13节,风向,有时为22节阵风
温度 37°C
湿度 40%
气压 1009 hPa
能見度: 16.1公里
天空无云

METAR: KWLD 152354Z AUTO 19013G22KT 10SM CLR 37/21 A2979 RMK AO2 PK WND 20028/2306 SLP069 T03720206 10411 20367 56013

时间: 19:48 (00:48 UTC)


TAF: 丢失

超过4000个机场的气象观测和天气预报(METAR&TAF报告)。

可查询的气象台以黄色和红色小点在地图上表示。

将鼠标移到小点上方,可查看气象台名称。

然后点击查看天气观测和预报。

如需切换地图:点击带黑十字的绿色按钮放大地图;点击带横线的绿色按钮缩小地图;或者点击绿色箭头查看邻近地区的地图。


METAR-TAF: